KAPF/APF METAR and TAF weather

Enter ICAO airport designator
Station Type Date Time Source
KAPF METAR 2020/08/10 23:53 UTC NOAA

KAPF 102353Z 14005KT 10SM FEW075 FEW090 SCT110 25/24 A3004 RMK AO2 LTG DSNT E-S RAB42E48 TSE05B13E15 SLP170 6//// T02500239 10350 20233 51009 PNO $


Station Type Date Time Source
KAPF Decoded METAR 2020/08/10 23:53 UTC NOAA

NAPLES MUNICIPAL AIRPORT, FL, United States (KAPF) 26-09N 081-46W
Aug 10, 2020 - 07:53 PM EDT / 2020.08.10 2353 UTC
Wind: from the SE (140 degrees) at 6 MPH (5 KT):0
Visibility: 10 mile(s):0
Sky conditions: partly cloudy
Weather: Lightning observed
Temperature: 77.0 F (25.0 C)
Dew Point: 75.0 F (23.9 C)
Relative Humidity: 93%
Pressure (altimeter): 30.04 in. Hg (1017 hPa)
Pressure tendency: 0.03 inches (0.9 hPa) higher than three hours ago
ob: KAPF 102353Z 14005KT 10SM FEW075 FEW090 SCT110 25/24 A3004 RMK AO2 LTG DSNT E-S RAB42E48 TSE05B13E15 SLP170 6//// T02500239 10350 20233 51009 PNO
cycle: 0

Station Type Date Time Source
KAPF TAF 2020/08/10 21:48 UTC NOAA

TAF
AMD KAPF 102046Z 1021/1118 24010KT P6SM VCTS SCT030CB BKN050
TEMPO 1021/1022 VRB15G25KT 1SM +TSRA SCT015 BKN025CB OVC040
FM110100 05003KT P6SM SCT030 BKN250

Example: see airport list